Time;durP1;ratioP1;P1;durP2;ratioP2;P2;SDS_P1;SDS_P2;PMS_P1;PMS_P2;Temp;Humidity;BMP_temperature;BMP_pressure;BME280_temperature;BME280_humidity;BME280_pressure;Samples;Min_cycle;Max_cycle;Signal;HPM_P1;HPM_P2
2021/04/20 00:04:26;;;;;;;13.95;6.68;;;;;;;-146.18;100.00;67994.34;9992439;29;20092;-67
2021/04/20 00:09:22;;;;;;;16.08;6.57;;;;;;;-146.18;100.00;67994.34;9992314;29;20450;-67
2021/04/20 00:14:18;;;;;;;17.17;7.55;;;;;;;-146.18;100.00;67994.34;9991846;29;20048;-67
2021/04/20 00:19:14;;;;;;;15.23;6.45;;;;;;;-146.18;100.00;67994.34;9989163;29;20051;-67
2021/04/20 00:24:10;;;;;;;19.17;7.63;;;;;;;-146.18;100.00;67994.34;9992174;29;20044;-67
2021/04/20 00:29:06;;;;;;;22.20;6.93;;;;;;;-146.18;100.00;67994.34;9987680;29;20059;-67
2021/04/20 00:34:02;;;;;;;18.73;7.25;;;;;;;-146.18;100.00;67994.34;9982634;29;20052;-67
2021/04/20 00:38:58;;;;;;;18.83;8.52;;;;;;;-146.18;100.00;67994.34;9986451;29;20109;-67
2021/04/20 00:43:54;;;;;;;17.20;8.10;;;;;;;-146.18;100.00;67994.34;9989039;29;20058;-67
2021/04/20 00:48:51;;;;;;;21.05;7.47;;;;;;;-146.18;100.00;67994.34;9985471;29;20183;-66
2021/04/20 00:53:47;;;;;;;17.45;7.50;;;;;;;-146.18;100.00;67994.34;9985667;29;20048;-67
2021/04/20 00:58:45;;;;;;;14.50;8.07;;;;;;;-146.18;100.00;67994.34;9983073;29;20071;-67
2021/04/20 01:03:41;;;;;;;14.75;7.70;;;;;;;-146.18;100.00;67994.34;9989033;29;20055;-67
2021/04/20 01:08:40;;;;;;;20.73;7.85;;;;;;;-146.18;100.00;67994.34;9988429;29;20470;-67
2021/04/20 01:13:37;;;;;;;15.95;8.07;;;;;;;-146.18;100.00;67994.34;9970572;29;20588;-67
2021/04/20 01:18:36;;;;;;;14.32;7.47;;;;;;;-146.18;100.00;67994.34;9988603;29;20044;-67
2021/04/20 01:24:16;;;;;;;18.52;8.52;;;;;;;-146.18;100.00;67994.34;9989841;29;20059;-66
2021/04/20 01:29:13;;;;;;;18.45;8.23;;;;;;;-146.18;100.00;67994.34;9976533;29;20048;-67
2021/04/20 01:34:09;;;;;;;18.98;8.75;;;;;;;-146.18;100.00;67994.34;9989015;29;20058;-66
2021/04/20 01:39:09;;;;;;;19.48;8.05;;;;;;;-146.18;100.00;67994.34;9982217;29;20834;-67
2021/04/20 01:44:06;;;;;;;19.08;8.75;;;;;;;-146.18;100.00;67994.34;9989451;29;20853;-67
2021/04/20 01:49:03;;;;;;;16.58;7.30;;;;;;;-146.18;100.00;67994.34;9988842;29;20591;-66
2021/04/20 01:53:59;;;;;;;17.00;7.93;;;;;;;-146.18;100.00;67994.34;9987924;29;20084;-67
2021/04/20 01:58:55;;;;;;;14.15;7.70;;;;;;;-146.18;100.00;67994.34;9969331;29;20060;-67
2021/04/20 02:03:51;;;;;;;19.35;8.27;;;;;;;-146.18;100.00;67994.34;9993873;29;20055;-67
2021/04/20 02:08:48;;;;;;;16.73;7.43;;;;;;;-146.18;100.00;67994.34;9992602;29;20048;-67
2021/04/20 02:13:45;;;;;;;15.52;7.95;;;;;;;-146.18;100.00;67994.34;9996666;29;20502;-67
2021/04/20 02:18:46;;;;;;;18.70;8.65;;;;;;;-146.18;100.00;67994.34;9994410;29;20132;-67
2021/04/20 02:23:43;;;;;;;16.77;8.48;;;;;;;-146.18;100.00;67994.34;9993965;29;20052;-67
2021/04/20 02:28:40;;;;;;;17.58;8.35;;;;;;;-146.18;100.00;67994.34;9989920;29;20399;-67
2021/04/20 02:33:37;;;;;;;15.30;8.15;;;;;;;-146.18;100.00;67994.34;9995770;29;20048;-67
2021/04/20 02:38:35;;;;;;;20.15;8.75;;;;;;;-146.18;100.00;67994.34;9995225;29;20387;-67
2021/04/20 02:43:33;;;;;;;19.60;8.20;;;;;;;-146.18;100.00;67994.34;9987120;29;20044;-67
2021/04/20 02:48:30;;;;;;;15.32;8.25;;;;;;;-146.18;100.00;67994.34;9997384;29;20052;-67
2021/04/20 02:53:27;;;;;;;19.92;8.50;;;;;;;-146.18;100.00;67994.34;9997250;29;20563;-67
2021/04/20 02:58:26;;;;;;;17.85;7.85;;;;;;;-146.18;100.00;67994.34;9992245;29;20111;-67
2021/04/20 03:03:23;;;;;;;19.17;9.13;;;;;;;-146.18;100.00;67994.34;9992724;29;20139;-66
2021/04/20 03:08:19;;;;;;;13.25;7.57;;;;;;;-146.18;100.00;67994.34;9994510;29;20060;-67
2021/04/20 03:13:16;;;;;;;16.95;7.65;;;;;;;-146.18;100.00;67994.34;9996463;29;20076;-67
2021/04/20 03:18:12;;;;;;;15.85;7.78;;;;;;;-146.18;100.00;67994.34;9984333;29;20104;-68
2021/04/20 03:23:09;;;;;;;21.58;9.00;;;;;;;-146.18;100.00;67994.34;9994989;29;20063;-67
2021/04/20 03:28:05;;;;;;;18.20;8.05;;;;;;;-146.18;100.00;67994.34;9995555;29;20058;-67
2021/04/20 03:33:21;;;;;;;18.85;8.48;;;;;;;-146.18;100.00;67994.34;9994596;29;20087;-68
2021/04/20 03:38:23;;;;;;;14.38;6.55;;;;;;;-146.18;100.00;67994.34;9986289;29;20394;-68
2021/04/20 03:43:23;;;;;;;16.58;7.40;;;;;;;-146.18;100.00;67994.34;9993419;29;20048;-66
2021/04/20 03:48:24;;;;;;;15.27;7.18;;;;;;;-146.18;100.00;67994.34;9993181;29;20056;-67
2021/04/20 03:53:23;;;;;;;15.48;7.35;;;;;;;-146.18;100.00;67994.34;9992031;29;20051;-67
2021/04/20 03:58:22;;;;;;;18.00;7.97;;;;;;;-146.18;100.00;67994.34;9991268;29;20541;-67
2021/04/20 04:03:23;;;;;;;15.68;7.38;;;;;;;-146.18;100.00;67994.34;9991048;29;20151;-67
2021/04/20 04:08:20;;;;;;;19.52;7.75;;;;;;;-146.18;100.00;67994.34;9986256;29;20056;-68
2021/04/20 04:13:20;;;;;;;15.93;7.93;;;;;;;-146.18;100.00;67994.34;9987784;29;20197;-68
2021/04/20 04:18:21;;;;;;;13.85;8.13;;;;;;;-146.18;100.00;67994.34;9993684;29;20510;-67
2021/04/20 04:23:23;;;;;;;17.55;7.57;;;;;;;-146.18;100.00;67994.34;9993825;29;20056;-68
2021/04/20 04:28:21;;;;;;;15.57;7.85;;;;;;;-146.18;100.00;67994.34;9984648;29;20148;-67
2021/04/20 04:33:17;;;;;;;17.13;8.25;;;;;;;-146.18;100.00;67994.34;9993039;29;20051;-67
2021/04/20 04:38:14;;;;;;;14.48;7.43;;;;;;;-146.18;100.00;67994.34;9991865;29;20071;-67
2021/04/20 04:43:12;;;;;;;19.25;7.35;;;;;;;-146.18;100.00;67994.34;9993087;29;20048;-67
2021/04/20 04:48:09;;;;;;;17.60;8.93;;;;;;;-146.18;100.00;67994.34;9989629;29;20095;-67
2021/04/20 04:53:06;;;;;;;16.00;7.63;;;;;;;-146.18;100.00;67994.34;9986501;29;20048;-67
2021/04/20 04:58:03;;;;;;;15.60;7.45;;;;;;;-146.18;100.00;67994.34;9989576;29;20407;-67
2021/04/20 05:02:59;;;;;;;16.05;7.70;;;;;;;-146.18;100.00;67994.34;9990488;29;20426;-67
2021/04/20 05:07:59;;;;;;;20.73;7.95;;;;;;;-146.18;100.00;67994.34;9992977;29;20044;-67
2021/04/20 05:12:57;;;;;;;16.88;6.85;;;;;;;-146.18;100.00;67994.34;9988354;29;20502;-67
2021/04/20 05:17:53;;;;;;;16.80;7.15;;;;;;;-146.18;100.00;67994.34;9991539;29;20095;-67
2021/04/20 05:22:49;;;;;;;16.27;7.88;;;;;;;-146.18;100.00;67994.34;9991054;29;20124;-67
2021/04/20 05:27:49;;;;;;;13.80;6.78;;;;;;;-146.18;100.00;67994.34;9990590;29;20131;-67
2021/04/20 05:32:49;;;;;;;19.33;7.05;;;;;;;-146.18;100.00;67994.34;9992073;29;20415;-67
2021/04/20 05:37:46;;;;;;;21.38;8.07;;;;;;;-146.18;100.00;67994.34;9997269;29;20041;-67
2021/04/20 05:42:42;;;;;;;12.20;6.50;;;;;;;-146.18;100.00;67994.34;9998333;29;20100;-67
2021/04/20 05:47:44;;;;;;;14.57;6.95;;;;;;;-146.18;100.00;67994.34;9995770;29;20055;-67
2021/04/20 05:52:40;;;;;;;14.45;6.40;;;;;;;-146.18;100.00;67994.34;9995230;29;20051;-69
2021/04/20 05:57:36;;;;;;;13.52;6.00;;;;;;;-146.18;100.00;67994.34;9993060;29;20044;-67
2021/04/20 06:02:36;;;;;;;14.10;7.22;;;;;;;-146.18;100.00;67994.34;9996465;29;20479;-67
2021/04/20 06:07:35;;;;;;;11.70;5.43;;;;;;;-146.18;100.00;67994.34;9992226;29;20044;-65
2021/04/20 06:12:31;;;;;;;14.48;5.72;;;;;;;-146.18;100.00;67994.34;9997543;29;20044;-66
2021/04/20 06:17:28;;;;;;;11.82;5.35;;;;;;;-146.18;100.00;67994.34;9992839;29;20107;-66
2021/04/20 06:22:25;;;;;;;12.40;4.97;;;;;;;-146.18;100.00;67994.34;9994727;29;20062;-66
2021/04/20 06:27:21;;;;;;;10.60;5.40;;;;;;;-146.18;100.00;67994.34;9992983;29;20040;-66
2021/04/20 06:32:18;;;;;;;12.43;5.20;;;;;;;-146.18;100.00;67994.34;9994102;29;20051;-66
2021/04/20 06:37:14;;;;;;;12.05;5.47;;;;;;;-146.18;100.00;67994.34;9986272;29;20505;-66
2021/04/20 06:42:18;;;;;;;8.75;4.25;;;;;;;-146.18;100.00;67994.34;9992589;29;20048;-66
2021/04/20 06:47:38;;;;;;;12.82;4.50;;;;;;;-146.18;100.00;67994.34;9988792;29;20047;-67
2021/04/20 06:52:42;;;;;;;14.02;4.95;;;;;;;-146.18;100.00;67994.34;9988764;29;20076;-67
2021/04/20 06:57:44;;;;;;;12.75;4.38;;;;;;;-146.18;100.00;67994.34;9992331;29;20095;-68
2021/04/20 07:02:53;;;;;;;13.88;5.43;;;;;;;-146.18;100.00;67994.34;9993745;29;20120;-68
2021/04/20 07:08:23;;;;;;;9.45;4.35;;;;;;;-146.18;100.00;67994.34;9968084;29;530537;-68
2021/04/20 07:13:22;;;;;;;11.18;4.22;;;;;;;-146.18;100.00;67994.34;9983325;29;20056;-68
2021/04/20 07:18:37;;;;;;;9.90;4.10;;;;;;;-146.18;100.00;67994.34;9991695;29;20063;-68
2021/04/20 07:23:55;;;;;;;8.43;4.28;;;;;;;-146.18;100.00;67994.34;9990107;29;20044;-66
2021/04/20 07:29:11;;;;;;;13.35;4.43;;;;;;;-146.18;100.00;67994.34;9991777;29;20040;-66
2021/04/20 07:34:07;;;;;;;11.95;4.38;;;;;;;-146.18;100.00;67994.34;9989469;29;20060;-68
2021/04/20 07:39:10;;;;;;;8.75;3.25;;;;;;;-146.18;100.00;67994.34;9990028;29;20067;-68
2021/04/20 07:44:08;;;;;;;10.20;3.77;;;;;;;-146.18;100.00;67994.34;9994307;29;20056;-67
2021/04/20 07:49:12;;;;;;;8.68;3.30;;;;;;;-146.18;100.00;67994.34;9992346;29;20451;-67
2021/04/20 07:54:17;;;;;;;9.43;3.35;;;;;;;-146.18;100.00;67994.34;9992966;29;20096;-67
2021/04/20 07:59:18;;;;;;;10.88;3.05;;;;;;;-146.18;100.00;67994.34;9988639;29;20439;-67
2021/04/20 08:04:33;;;;;;;8.80;3.45;;;;;;;-146.18;100.00;67994.34;9985677;29;20814;-67
2021/04/20 08:09:34;;;;;;;10.35;3.03;;;;;;;-146.18;100.00;67994.34;9991802;29;20076;-68
2021/04/20 08:14:52;;;;;;;7.10;3.30;;;;;;;-146.18;100.00;67994.34;9993881;29;20052;-68
2021/04/20 08:20:02;;;;;;;9.25;2.97;;;;;;;-146.18;100.00;67994.34;9985354;29;20538;-67
2021/04/20 08:25:36;;;;;;;4.47;2.10;;;;;;;-146.18;100.00;67994.34;9989326;29;20059;-67
2021/04/20 08:30:47;;;;;;;7.95;2.80;;;;;;;-146.18;100.00;67994.34;9988069;29;20420;-67
2021/04/20 08:35:48;;;;;;;10.13;2.78;;;;;;;-146.18;100.00;67994.34;9985042;29;20043;-67
2021/04/20 08:40:56;;;;;;;9.43;2.70;;;;;;;-146.18;100.00;67994.34;9984782;29;20459;-67
2021/04/20 08:46:01;;;;;;;8.63;2.67;;;;;;;-146.18;100.00;67994.34;9990803;29;20108;-67
2021/04/20 08:51:07;;;;;;;15.18;3.15;;;;;;;-146.18;100.00;67994.34;9988602;29;20108;-67
2021/04/20 08:56:18;;;;;;;10.45;3.42;;;;;;;-146.18;100.00;67994.34;9988010;29;20429;-67
2021/04/20 09:01:23;;;;;;;10.60;2.58;;;;;;;-146.18;100.00;67994.34;9989266;29;20494;-67
2021/04/20 09:06:28;;;;;;;9.27;2.05;;;;;;;-146.18;100.00;67994.34;9986876;29;20043;-68
2021/04/20 09:11:35;;;;;;;7.15;2.05;;;;;;;-146.18;100.00;67994.34;9975036;29;20079;-68
2021/04/20 09:16:39;;;;;;;3.55;1.60;;;;;;;-146.18;100.00;67994.34;9982207;29;20119;-68
2021/04/20 09:21:57;;;;;;;;;;;;;;;-146.18;100.00;67994.34;9990196;29;20044;-66
2021/04/20 09:27:02;;;;;;;9.30;2.40;;;;;;;-146.18;100.00;67994.34;9984827;29;19970;-67
2021/04/20 09:32:01;;;;;;;9.70;2.45;;;;;;;-146.18;100.00;67994.34;9987906;29;20080;-67
2021/04/20 09:36:58;;;;;;;4.30;2.25;;;;;;;-146.18;100.00;67994.34;9988619;29;20180;-66
2021/04/20 09:41:59;;;;;;;10.43;2.85;;;;;;;-146.18;100.00;67994.34;9990529;29;20458;-67
2021/04/20 09:47:23;;;;;;;7.05;2.10;;;;;;;-146.18;100.00;67994.34;9990708;29;20084;-67
2021/04/20 09:52:21;;;;;;;6.07;2.05;;;;;;;-146.18;100.00;67994.34;9983839;29;20119;-66
2021/04/20 09:57:22;;;;;;;22.77;2.90;;;;;;;-146.18;100.00;67994.34;9989038;29;20048;-67
2021/04/20 10:02:39;;;;;;;5.28;1.70;;;;;;;-146.18;100.00;67994.34;9983219;29;20546;-67
2021/04/20 10:07:44;;;;;;;7.03;2.08;;;;;;;-146.18;100.00;67994.34;9987409;29;20051;-67
2021/04/20 10:12:57;;;;;;;8.82;2.33;;;;;;;-146.18;100.00;67994.34;9977086;29;20099;-67
2021/04/20 10:18:19;;;;;;;8.13;2.78;;;;;;;-146.18;100.00;67994.34;9985805;29;20055;-67
2021/04/20 10:23:30;;;;;;;7.10;2.22;;;;;;;-146.18;100.00;67994.34;9990321;29;20557;-67
2021/04/20 10:29:04;;;;;;;5.72;2.38;;;;;;;-146.18;100.00;67994.34;9986966;29;20055;-67
2021/04/20 10:34:01;;;;;;;5.53;2.13;;;;;;;-146.18;100.00;67994.34;9994281;29;20080;-67
2021/04/20 10:39:05;;;;;;;4.72;2.20;;;;;;;-146.18;100.00;67994.34;9984603;29;20052;-67
2021/04/20 10:44:10;;;;;;;5.00;1.65;;;;;;;-146.18;100.00;67994.34;9993550;29;20075;-67
2021/04/20 10:49:08;;;;;;;6.05;2.05;;;;;;;-146.18;100.00;67994.34;9990959;29;20048;-67
2021/04/20 10:54:06;;;;;;;11.23;2.40;;;;;;;-146.18;100.00;67994.34;9994582;29;20509;-66
2021/04/20 10:59:07;;;;;;;6.82;1.98;;;;;;;-146.18;100.00;67994.34;9992310;29;20048;-67
2021/04/20 11:04:07;;;;;;;9.07;1.90;;;;;;;-146.18;100.00;67994.34;9993478;29;20108;-67
2021/04/20 11:09:04;;;;;;;5.55;1.98;;;;;;;-146.18;100.00;67994.34;9986408;29;20052;-67
2021/04/20 11:14:00;;;;;;;4.47;2.20;;;;;;;-146.18;100.00;67994.34;9991246;29;20083;-66
2021/04/20 11:19:02;;;;;;;8.85;2.90;;;;;;;-146.18;100.00;67994.34;9987495;29;20048;-67
2021/04/20 11:24:03;;;;;;;5.47;2.42;;;;;;;-146.18;100.00;67994.34;9984945;29;20071;-66
2021/04/20 11:29:07;;;;;;;7.38;2.90;;;;;;;-146.18;100.00;67994.34;9987504;29;20514;-66
2021/04/20 11:34:13;;;;;;;7.80;2.60;;;;;;;-146.18;100.00;67994.34;9993905;29;20577;-65
2021/04/20 11:39:16;;;;;;;7.60;2.30;;;;;;;-146.18;100.00;67994.34;9990964;29;20083;-66
2021/04/20 11:44:13;;;;;;;;;;;;;;;-146.18;100.00;67994.34;9988886;29;20049;-66
2021/04/20 11:49:13;;;;;;;5.25;2.95;;;;;;;-146.18;100.00;67994.34;9992614;29;20024;-69
2021/04/20 11:54:19;;;;;;;6.13;2.65;;;;;;;-146.18;100.00;67994.34;9984953;29;20040;-66
2021/04/20 11:59:19;;;;;;;7.43;2.80;;;;;;;-146.18;100.00;67994.34;9993635;29;20048;-66
2021/04/20 12:04:22;;;;;;;5.82;2.30;;;;;;;-146.18;100.00;67994.34;9991584;29;20048;-66
2021/04/20 12:09:28;;;;;;;5.00;1.90;;;;;;;-146.18;100.00;67994.34;9981081;29;20138;-66
2021/04/20 12:14:28;;;;;;;6.93;2.35;;;;;;;-146.18;100.00;67994.34;9987346;29;20596;-66
2021/04/20 12:19:29;;;;;;;4.25;1.80;;;;;;;-146.18;100.00;67994.34;9991124;29;20052;-66
2021/04/20 12:24:29;;;;;;;;;;;;;;;-146.18;100.00;67994.34;9992400;29;20056;-67
2021/04/20 12:29:31;;;;;;;4.80;1.80;;;;;;;-146.18;100.00;67994.34;9988133;29;20400;-67
2021/04/20 12:34:28;;;;;;;7.77;2.07;;;;;;;-146.18;100.00;67994.34;9990389;29;20537;-67
2021/04/20 12:39:26;;;;;;;9.57;2.40;;;;;;;-146.18;100.00;67994.34;9990795;29;20040;-66
2021/04/20 12:44:29;;;;;;;10.45;3.78;;;;;;;-146.18;100.00;67994.34;9986793;29;20067;-67
2021/04/20 12:49:25;;;;;;;6.43;2.22;;;;;;;-146.18;100.00;67994.34;9991787;29;20093;-67
2021/04/20 12:54:23;;;;;;;10.05;2.45;;;;;;;-146.18;100.00;67994.34;9992553;29;20096;-67
2021/04/20 12:59:22;;;;;;;6.10;1.85;;;;;;;-146.18;100.00;67994.34;9986182;29;20048;-67
2021/04/20 13:04:34;;;;;;;4.47;1.73;;;;;;;-146.18;100.00;67994.34;9989541;29;20044;-67
2021/04/20 13:09:36;;;;;;;5.97;2.05;;;;;;;-146.18;100.00;67994.34;9981387;29;20912;-67
2021/04/20 13:14:34;;;;;;;6.55;2.17;;;;;;;-146.18;100.00;67994.34;9984587;29;20040;-69
2021/04/20 13:19:34;;;;;;;7.35;2.15;;;;;;;-146.18;100.00;67994.34;9979844;29;20477;-66
2021/04/20 13:24:32;;;;;;;5.75;1.80;;;;;;;-146.18;100.00;67994.34;9981239;29;20116;-66
2021/04/20 13:29:30;;;;;;;5.90;2.00;;;;;;;-146.18;100.00;67994.34;9971624;29;20565;-66
2021/04/20 13:34:33;;;;;;;7.78;3.33;;;;;;;-146.18;100.00;67994.34;9975558;29;20044;-66
2021/04/20 13:39:46;;;;;;;7.72;1.52;;;;;;;-146.18;100.00;67994.34;9977038;29;20134;-66
2021/04/20 13:44:53;;;;;;;6.57;2.00;;;;;;;-146.18;100.00;67994.34;9978725;29;20044;-66
2021/04/20 13:49:55;;;;;;;4.85;1.80;;;;;;;-146.18;100.00;67994.34;9983373;29;20051;-66
2021/04/20 13:55:20;;;;;;;4.77;1.60;;;;;;;-146.18;100.00;67994.34;9988756;29;20107;-66
2021/04/20 14:00:19;;;;;;;4.80;1.90;;;;;;;-146.18;100.00;67994.34;9987005;29;20422;-66
2021/04/20 14:05:17;;;;;;;5.97;1.95;;;;;;;-146.18;100.00;67994.34;9998698;29;20052;-66
2021/04/20 14:10:22;;;;;;;4.68;1.55;;;;;;;-146.18;100.00;67994.34;9990788;29;20087;-66
2021/04/20 14:15:28;;;;;;;11.52;2.13;;;;;;;-146.18;100.00;67994.34;9992869;29;20052;-66
2021/04/20 14:20:28;;;;;;;4.93;1.58;;;;;;;-146.18;100.00;67994.34;9986236;29;20052;-66
2021/04/20 14:25:26;;;;;;;4.05;1.58;;;;;;;-146.18;100.00;67994.34;9992818;29;20052;-66
2021/04/20 14:30:23;;;;;;;7.68;2.10;;;;;;;-146.18;100.00;67994.34;9992743;29;20483;-66
2021/04/20 14:35:26;;;;;;;11.00;2.13;;;;;;;-146.18;100.00;67994.34;9987453;29;20107;-66
2021/04/20 14:40:23;;;;;;;5.97;2.13;;;;;;;-146.18;100.00;67994.34;9991390;29;20099;-66
2021/04/20 14:45:24;;;;;;;5.38;2.22;;;;;;;-146.18;100.00;67994.34;9991818;29;20550;-66
2021/04/20 14:50:29;;;;;;;4.95;2.20;;;;;;;-146.18;100.00;67994.34;9995138;29;20052;-66
2021/04/20 14:55:26;;;;;;;5.53;1.95;;;;;;;-146.18;100.00;67994.34;9990442;29;20075;-67
2021/04/20 15:00:34;;;;;;;7.57;2.28;;;;;;;-146.18;100.00;67994.34;9986496;29;20056;-66
2021/04/20 15:05:31;;;;;;;5.45;2.33;;;;;;;-146.18;100.00;67994.34;9993452;29;20856;-66
2021/04/20 15:10:36;;;;;;;5.70;1.95;;;;;;;-146.18;100.00;67994.34;9992600;29;20102;-66
2021/04/20 15:15:40;;;;;;;5.10;1.92;;;;;;;-146.18;100.00;67994.34;9988353;29;20135;-66
2021/04/20 15:20:41;;;;;;;9.38;2.00;;;;;;;-146.18;100.00;67994.34;9982783;29;20499;-66
2021/04/20 15:25:47;;;;;;;5.18;1.73;;;;;;;-146.18;100.00;67994.34;9992746;29;20052;-66
2021/04/20 15:30:45;;;;;;;5.88;1.63;;;;;;;-146.18;100.00;67994.34;9990350;29;20562;-66
2021/04/20 15:35:51;;;;;;;5.85;1.70;;;;;;;-146.18;100.00;67994.34;9987645;29;20043;-67
2021/04/20 15:40:47;;;;;;;7.43;2.08;;;;;;;-146.18;100.00;67994.34;9974941;29;20095;-65
2021/04/20 15:45:46;;;;;;;4.90;1.80;;;;;;;-146.18;100.00;67994.34;9985120;29;20135;-67
2021/04/20 15:50:48;;;;;;;6.55;2.08;;;;;;;-146.18;100.00;67994.34;9981464;29;20048;-66
2021/04/20 15:55:45;;;;;;;6.95;1.92;;;;;;;-146.18;100.00;67994.34;9987862;29;20757;-67
2021/04/20 16:00:43;;;;;;;4.20;1.75;;;;;;;-146.18;100.00;67994.34;9989687;29;20063;-67
2021/04/20 16:05:40;;;;;;;5.57;1.55;;;;;;;-146.18;100.00;67994.34;9987820;29;20400;-67
2021/04/20 16:10:38;;;;;;;4.45;1.70;;;;;;;-146.18;100.00;67994.34;9986422;29;20099;-67
2021/04/20 16:15:45;;;;;;;5.50;1.88;;;;;;;-146.18;100.00;67994.34;9989792;29;20498;-67
2021/04/20 16:20:45;;;;;;;5.75;1.67;;;;;;;-146.18;100.00;67994.34;9985434;29;20058;-67
2021/04/20 16:25:45;;;;;;;5.50;1.80;;;;;;;-146.18;100.00;67994.34;9987447;29;20125;-67
2021/04/20 16:30:51;;;;;;;3.95;1.40;;;;;;;-146.18;100.00;67994.34;9978514;29;20078;-67
2021/04/20 16:35:50;;;;;;;5.85;1.90;;;;;;;-146.18;100.00;67994.34;9989948;29;20068;-66
2021/04/20 16:41:05;;;;;;;7.57;2.10;;;;;;;-146.18;100.00;67994.34;9989129;29;20514;-67
2021/04/20 16:46:09;;;;;;;5.55;1.95;;;;;;;-146.18;100.00;67994.34;9978726;29;20518;-67
2021/04/20 16:51:43;;;;;;;5.25;1.80;;;;;;;-146.18;100.00;67994.34;9991828;29;20076;-66
2021/04/20 16:57:06;;;;;;;4.80;1.97;;;;;;;-146.18;100.00;67994.34;9985382;29;20129;-66
2021/04/20 17:02:07;;;;;;;;;;;;;;;-146.18;100.00;67994.34;9991934;29;20052;-66
2021/04/20 17:07:16;;;;;;;6.15;1.90;;;;;;;-146.18;100.00;67994.34;9992392;29;20477;-67
2021/04/20 17:12:47;;;;;;;8.40;2.13;;;;;;;-146.18;100.00;67994.34;9979913;29;20052;-66
2021/04/20 17:18:35;;;;;;;5.18;1.85;;;;;;;-146.18;100.00;67994.34;9986309;29;20056;-66
2021/04/20 17:24:11;;;;;;;4.82;1.98;;;;;;;-146.18;100.00;67994.34;9987295;29;20059;-66
2021/04/20 17:29:33;;;;;;;6.32;1.77;;;;;;;-146.18;100.00;67994.34;9985483;29;20044;-66
2021/04/20 17:34:47;;;;;;;5.38;2.40;;;;;;;-146.18;100.00;67994.34;9990992;29;20056;-67
2021/04/20 17:40:10;;;;;;;4.65;2.00;;;;;;;-146.18;100.00;67994.34;9993630;29;20040;-66
2021/04/20 17:45:19;;;;;;;6.40;1.80;;;;;;;-146.18;100.00;67994.34;9995294;29;20059;-66
2021/04/20 17:50:30;;;;;;;4.97;2.13;;;;;;;-146.18;100.00;67994.34;9994229;29;20044;-67
2021/04/20 17:55:48;;;;;;;6.82;2.53;;;;;;;-146.18;100.00;67994.34;9992034;29;20052;-66
2021/04/20 18:00:54;;;;;;;4.78;2.20;;;;;;;-146.18;100.00;67994.34;9996482;29;20096;-67
2021/04/20 18:06:22;;;;;;;7.95;2.58;;;;;;;-146.18;100.00;67994.34;9993654;29;20048;-66
2021/04/20 18:11:27;;;;;;;5.40;1.90;;;;;;;-146.18;100.00;67994.34;9990615;29;20075;-66
2021/04/20 18:16:58;;;;;;;6.45;2.30;;;;;;;-146.18;100.00;67994.34;9991903;29;20498;-66
2021/04/20 18:21:59;;;;;;;6.68;2.70;;;;;;;-146.18;100.00;67994.34;9995225;29;20060;-66
2021/04/20 18:27:16;;;;;;;5.47;2.10;;;;;;;-146.18;100.00;67994.34;9995116;29;20104;-66
2021/04/20 18:32:27;;;;;;;7.72;2.40;;;;;;;-146.18;100.00;67994.34;9987757;29;20434;-66
2021/04/20 18:37:33;;;;;;;4.63;1.55;;;;;;;-146.18;100.00;67994.34;9982720;29;20048;-66
2021/04/20 18:42:51;;;;;;;6.80;1.90;;;;;;;-146.18;100.00;67994.34;9988383;29;20314;-66
2021/04/20 18:47:58;;;;;;;4.13;1.83;;;;;;;-146.18;100.00;67994.34;9989059;29;20044;-65
2021/04/20 18:53:47;;;;;;;5.90;2.08;;;;;;;-146.18;100.00;67994.34;9991196;29;20045;-66
2021/04/20 18:58:56;;;;;;;6.40;2.38;;;;;;;-146.18;100.00;67994.34;9976513;29;20043;-66
2021/04/20 19:04:10;;;;;;;5.85;2.20;;;;;;;-146.18;100.00;67994.34;9994438;29;20044;-66
2021/04/20 19:09:20;;;;;;;5.80;2.28;;;;;;;-146.18;100.00;67994.34;9991320;29;20506;-66
2021/04/20 19:14:46;;;;;;;7.95;2.40;;;;;;;-146.18;100.00;67994.34;9985692;29;20056;-66
2021/04/20 19:20:15;;;;;;;7.53;2.17;;;;;;;-146.18;100.00;67994.34;9984322;29;20044;-65
2021/04/20 19:25:37;;;;;;;9.45;2.95;;;;;;;-146.18;100.00;67994.34;9968373;29;20049;-66
2021/04/20 19:30:33;;;;;;;8.77;2.70;;;;;;;-146.18;100.00;67994.34;9989650;29;20057;-66
2021/04/20 19:35:52;;;;;;;9.07;2.92;;;;;;;-146.18;100.00;67994.34;9988205;29;20056;-66
2021/04/20 19:40:48;;;;;;;10.43;3.10;;;;;;;-146.18;100.00;67994.34;9988067;29;20108;-66
2021/04/20 19:45:44;;;;;;;7.70;3.10;;;;;;;-146.18;100.00;67994.34;9989765;29;20048;-67
2021/04/20 19:50:43;;;;;;;10.88;2.95;;;;;;;-146.18;100.00;67994.34;9979205;29;20052;-66
2021/04/20 19:55:39;;;;;;;8.88;3.03;;;;;;;-146.18;100.00;67994.34;9982996;29;20063;-66
2021/04/20 20:00:36;;;;;;;7.45;2.80;;;;;;;-146.18;100.00;67994.34;9989959;29;20467;-65
2021/04/20 20:05:33;;;;;;;5.65;2.50;;;;;;;-146.18;100.00;67994.34;9989858;29;20108;-65
2021/04/20 20:10:35;;;;;;;8.90;3.25;;;;;;;-146.18;100.00;67994.34;9990015;29;20085;-66
2021/04/20 20:15:39;;;;;;;9.85;3.63;;;;;;;-146.18;100.00;67994.34;9986899;29;20139;-65
2021/04/20 20:20:46;;;;;;;13.25;3.95;;;;;;;-146.18;100.00;67994.34;9984111;29;20052;-65
2021/04/20 20:25:43;;;;;;;9.70;3.55;;;;;;;-146.18;100.00;67994.34;9989469;29;20051;-66
2021/04/20 20:30:47;;;;;;;13.55;4.18;;;;;;;-146.18;100.00;67994.34;9984611;29;20653;-65
2021/04/20 20:35:53;;;;;;;10.88;4.85;;;;;;;-146.18;100.00;67994.34;9987375;29;20111;-66
2021/04/20 20:40:57;;;;;;;13.32;4.68;;;;;;;-146.18;100.00;67994.34;9986160;29;20522;-64
2021/04/20 20:46:01;;;;;;;;;;;;;;;-146.18;100.00;67994.34;9987643;29;20506;-66
2021/04/20 20:51:03;;;;;;;11.55;5.03;;;;;;;-146.18;100.00;67994.34;9983460;29;20009;-65
2021/04/20 20:55:59;;;;;;;10.60;4.68;;;;;;;-146.18;100.00;67994.34;9979969;29;20122;-65
2021/04/20 21:01:05;;;;;;;14.65;4.78;;;;;;;-146.18;100.00;67994.34;9985009;29;20075;-65
2021/04/20 21:06:02;;;;;;;9.57;4.35;;;;;;;-146.18;100.00;67994.34;9991712;29;20106;-66
2021/04/20 21:11:05;;;;;;;9.55;4.05;;;;;;;-146.18;100.00;67994.34;9986611;29;20059;-65
2021/04/20 21:16:06;;;;;;;9.38;4.13;;;;;;;-146.18;100.00;67994.34;9987639;29;20463;-66
2021/04/20 21:21:27;;;;;;;10.32;3.47;;;;;;;-146.18;100.00;67994.34;9980345;29;20056;-66
2021/04/20 21:26:33;;;;;;;10.00;3.63;;;;;;;-146.18;100.00;67994.34;9988597;29;20072;-66
2021/04/20 21:31:32;;;;;;;11.38;2.97;;;;;;;-146.18;100.00;67994.34;9980504;29;20522;-66
2021/04/20 21:36:33;;;;;;;7.88;3.30;;;;;;;-146.18;100.00;67994.34;9981574;29;20080;-67
2021/04/20 21:41:31;;;;;;;11.73;4.00;;;;;;;-146.18;100.00;67994.34;9988553;29;20079;-66
2021/04/20 21:46:33;;;;;;;10.32;3.80;;;;;;;-146.18;100.00;67994.34;9977482;29;20075;-65
2021/04/20 21:51:39;;;;;;;9.30;3.47;;;;;;;-146.18;100.00;67994.34;9990485;29;20667;-65
2021/04/20 21:56:41;;;;;;;7.72;3.45;;;;;;;-146.18;100.00;67994.34;9984369;29;20040;-65
2021/04/20 22:01:38;;;;;;;9.20;4.40;;;;;;;-146.18;100.00;67994.34;9988061;29;20043;-65
2021/04/20 22:06:39;;;;;;;10.63;3.78;;;;;;;-146.18;100.00;67994.34;9985714;29;20052;-65
2021/04/20 22:11:49;;;;;;;8.30;3.80;;;;;;;-146.18;100.00;67994.34;9988651;29;20451;-66
2021/04/20 22:16:53;;;;;;;7.07;3.60;;;;;;;-146.18;100.00;67994.34;9982914;29;20059;-66
2021/04/20 22:21:50;;;;;;;8.40;3.70;;;;;;;-146.18;100.00;67994.34;9996759;29;20047;-65
2021/04/20 22:26:57;;;;;;;9.10;3.65;;;;;;;-146.18;100.00;67994.34;9990654;29;20048;-66
2021/04/20 22:31:55;;;;;;;9.05;4.05;;;;;;;-146.18;100.00;67994.34;9990161;29;20466;-67
2021/04/20 22:36:52;;;;;;;8.13;3.90;;;;;;;-146.18;100.00;67994.34;9988591;29;20112;-65
2021/04/20 22:42:07;;;;;;;10.93;4.50;;;;;;;-146.18;100.00;67994.34;9994068;29;20044;-65
2021/04/20 22:47:05;;;;;;;;;;;;;;;-146.18;100.00;67994.34;9994675;29;20083;-66
2021/04/20 22:52:23;;;;;;;7.88;4.07;;;;;;;-146.18;100.00;67994.34;9995340;29;19923;-67
2021/04/20 22:57:22;;;;;;;10.82;3.83;;;;;;;-146.18;100.00;67994.34;9988179;29;20099;-66